Time;durP1;ratioP1;P1;durP2;ratioP2;P2;SDS_P1;SDS_P2;PMS_P1;PMS_P2;Temp;Humidity;BMP_temperature;BMP_pressure;BME280_temperature;BME280_humidity;BME280_pressure;Samples;Min_cycle;Max_cycle;Signal;HPM_P1;HPM_P2
2023/10/29 00:02:06;;;;;;;0.73;0.73;;;;;;;;;;5015812;28;20227;-86
2023/10/29 00:04:35;;;;;;;0.57;0.57;;;;;;;;;;5013727;28;20565;-87
2023/10/29 00:07:02;;;;;;;0.70;0.70;;;;;;;;;;5014836;28;20246;-85
2023/10/29 00:09:28;;;;;;;0.70;0.70;;;;;;;;;;5015496;28;20188;-86
2023/10/29 00:11:54;;;;;;;0.50;0.50;;;;;;;;;;5016127;28;20267;-88
2023/10/29 00:14:20;;;;;;;0.63;0.63;;;;;;;;;;5013668;28;20195;-86
2023/10/29 00:16:47;;;;;;;0.60;0.60;;;;;;;;;;5014634;28;20200;-85
2023/10/29 00:19:13;;;;;;;0.50;0.50;;;;;;;;;;5022827;28;20188;-84
2023/10/29 00:21:39;;;;;;;0.70;0.70;;;;;;;;;;5035207;28;20212;-84
2023/10/29 00:24:05;;;;;;;0.70;0.70;;;;;;;;;;5035529;28;20192;-84
2023/10/29 00:26:31;;;;;;;0.60;0.60;;;;;;;;;;5031851;28;20207;-84
2023/10/29 00:28:57;;;;;;;0.60;0.60;;;;;;;;;;5032757;28;20168;-86
2023/10/29 00:31:24;;;;;;;0.70;0.70;;;;;;;;;;5022124;28;20211;-85
2023/10/29 00:33:50;;;;;;;0.70;0.70;;;;;;;;;;5034640;28;20204;-83
2023/10/29 00:36:16;;;;;;;0.63;0.63;;;;;;;;;;5036657;28;20204;-85
2023/10/29 00:38:42;;;;;;;0.70;0.70;;;;;;;;;;5020875;28;20180;-86
2023/10/29 00:41:08;;;;;;;0.50;0.50;;;;;;;;;;5012939;28;20243;-86
2023/10/29 00:43:40;;;;;;;0.60;0.60;;;;;;;;;;5013972;28;20185;-87
2023/10/29 00:46:07;;;;;;;0.63;0.63;;;;;;;;;;5012245;28;20275;-85
2023/10/29 00:48:33;;;;;;;0.60;0.60;;;;;;;;;;5014042;28;20303;-86
2023/10/29 00:50:59;;;;;;;0.50;0.50;;;;;;;;;;5013744;28;20793;-85
2023/10/29 00:53:25;;;;;;;0.60;0.60;;;;;;;;;;5014609;28;20799;-85
2023/10/29 00:55:52;;;;;;;0.70;0.70;;;;;;;;;;5016304;28;20219;-84
2023/10/29 00:58:19;;;;;;;0.60;0.60;;;;;;;;;;5015631;28;20231;-87
2023/10/29 01:00:46;;;;;;;0.60;0.60;;;;;;;;;;5015380;28;20190;-85
2023/10/29 01:03:12;;;;;;;0.60;0.60;;;;;;;;;;5015052;28;20582;-85
2023/10/29 01:05:39;;;;;;;0.60;0.60;;;;;;;;;;5014561;28;20196;-86
2023/10/29 01:08:08;;;;;;;0.70;0.70;;;;;;;;;;5016128;28;20246;-86
2023/10/29 01:10:36;;;;;;;0.60;0.60;;;;;;;;;;5014291;28;20204;-87
2023/10/29 01:13:02;;;;;;;0.70;0.70;;;;;;;;;;5013519;28;20683;-86
2023/10/29 01:15:28;;;;;;;0.60;0.60;;;;;;;;;;5013599;28;20204;-84
2023/10/29 01:17:53;;;;;;;0.63;0.63;;;;;;;;;;5014158;28;20249;-85
2023/10/29 01:20:19;;;;;;;0.63;0.63;;;;;;;;;;5014602;28;20176;-87
2023/10/29 01:22:45;;;;;;;0.60;0.60;;;;;;;;;;5014203;28;20208;-87
2023/10/29 01:25:12;;;;;;;0.60;0.60;;;;;;;;;;5013359;28;20193;-88
2023/10/29 01:27:38;;;;;;;0.50;0.50;;;;;;;;;;5013814;28;20733;-86
2023/10/29 01:30:05;;;;;;;0.47;0.47;;;;;;;;;;5013496;28;20181;-86
2023/10/29 01:32:32;;;;;;;0.60;0.60;;;;;;;;;;5012773;28;20176;-87
2023/10/29 01:34:58;;;;;;;0.60;0.60;;;;;;;;;;5013648;28;20196;-86
2023/10/29 01:37:25;;;;;;;0.60;0.60;;;;;;;;;;5014688;28;20176;-86
2023/10/29 01:39:51;;;;;;;0.50;0.50;;;;;;;;;;5013698;28;20268;-86
2023/10/29 01:42:17;;;;;;;0.57;0.57;;;;;;;;;;5017057;28;20196;-86
2023/10/29 01:44:43;;;;;;;0.50;0.50;;;;;;;;;;5010453;28;20188;-86
2023/10/29 01:47:17;;;;;;;0.70;0.70;;;;;;;;;;5004167;28;20177;-86
2023/10/29 01:49:43;;;;;;;0.67;0.67;;;;;;;;;;5010340;28;20185;-87
2023/10/29 01:52:09;;;;;;;0.80;0.80;;;;;;;;;;5010194;28;20181;-86
2023/10/29 01:54:36;;;;;;;0.50;0.50;;;;;;;;;;5009400;28;20261;-86
2023/10/29 01:57:02;;;;;;;0.57;0.57;;;;;;;;;;5013637;28;20177;-84
2023/10/29 01:59:32;;;;;;;0.60;0.60;;;;;;;;;;5006047;28;20187;-88
2023/10/29 02:01:58;;;;;;;0.60;0.60;;;;;;;;;;5000933;28;20267;-86
2023/10/29 02:04:26;;;;;;;0.63;0.63;;;;;;;;;;4998298;28;20647;-86
2023/10/29 02:06:55;;;;;;;0.53;0.53;;;;;;;;;;5012104;28;20193;-82
2023/10/29 02:09:21;;;;;;;0.60;0.60;;;;;;;;;;5019781;28;20220;-83
2023/10/29 02:11:47;;;;;;;0.50;0.50;;;;;;;;;;5018414;28;20181;-85
2023/10/29 02:14:13;;;;;;;0.50;0.50;;;;;;;;;;5006312;28;20190;-84
2023/10/29 02:16:39;;;;;;;0.60;0.60;;;;;;;;;;4996955;28;20197;-87
2023/10/29 02:19:05;;;;;;;0.67;0.67;;;;;;;;;;4996832;28;20649;-86
2023/10/29 02:21:31;;;;;;;0.80;0.80;;;;;;;;;;4999591;28;20204;-85
2023/10/29 02:24:00;;;;;;;0.50;0.50;;;;;;;;;;4999994;28;20185;-86
2023/10/29 02:26:26;;;;;;;0.60;0.60;;;;;;;;;;5001922;28;20201;-85
2023/10/29 02:28:52;;;;;;;0.60;0.60;;;;;;;;;;5003747;28;20169;-86
2023/10/29 02:31:19;;;;;;;0.60;0.60;;;;;;;;;;5010311;28;20295;-84
2023/10/29 02:33:46;;;;;;;0.70;0.70;;;;;;;;;;5018134;28;20174;-85
2023/10/29 02:36:12;;;;;;;0.60;0.60;;;;;;;;;;5016632;28;20197;-84
2023/10/29 02:38:38;;;;;;;0.70;0.70;;;;;;;;;;5008724;28;20239;-85
2023/10/29 02:41:05;;;;;;;0.60;0.60;;;;;;;;;;4997647;28;20176;-86
2023/10/29 02:43:31;;;;;;;0.60;0.60;;;;;;;;;;4999492;28;20181;-86
2023/10/29 02:45:56;;;;;;;0.67;0.67;;;;;;;;;;4999695;28;20200;-84
2023/10/29 02:48:24;;;;;;;0.70;0.70;;;;;;;;;;5000053;28;20197;-84
2023/10/29 02:50:50;;;;;;;0.70;0.70;;;;;;;;;;4998816;28;20201;-85
2023/10/29 02:53:17;;;;;;;0.60;0.60;;;;;;;;;;4997835;28;20201;-85
2023/10/29 02:55:43;;;;;;;0.60;0.60;;;;;;;;;;5000607;28;20261;-86
2023/10/29 02:58:09;;;;;;;0.67;0.67;;;;;;;;;;4998063;28;20205;-86
2023/10/29 03:00:35;;;;;;;0.60;0.60;;;;;;;;;;4997909;28;20184;-86
2023/10/29 03:03:01;;;;;;;0.70;0.70;;;;;;;;;;4999742;28;20230;-86
2023/10/29 03:05:27;;;;;;;0.63;0.63;;;;;;;;;;5003453;28;20189;-85
2023/10/29 03:07:53;;;;;;;0.73;0.73;;;;;;;;;;4996286;28;20276;-86
2023/10/29 03:10:20;;;;;;;0.60;0.60;;;;;;;;;;5002978;28;20188;-87
2023/10/29 03:12:46;;;;;;;0.67;0.67;;;;;;;;;;4995172;28;20596;-85
2023/10/29 03:15:12;;;;;;;0.60;0.60;;;;;;;;;;4995260;28;20208;-85
2023/10/29 03:17:39;;;;;;;0.60;0.60;;;;;;;;;;4999285;28;20228;-85
2023/10/29 03:20:06;;;;;;;0.70;0.70;;;;;;;;;;4998524;28;20570;-86
2023/10/29 03:22:32;;;;;;;0.60;0.60;;;;;;;;;;4995960;28;20582;-86
2023/10/29 03:24:58;;;;;;;0.60;0.60;;;;;;;;;;5000100;28;20193;-86
2023/10/29 03:27:24;;;;;;;0.70;0.70;;;;;;;;;;4995352;28;20643;-86
2023/10/29 03:29:50;;;;;;;0.80;0.80;;;;;;;;;;4997634;28;20182;-86
2023/10/29 03:32:16;;;;;;;0.70;0.70;;;;;;;;;;4998406;28;20177;-86
2023/10/29 03:34:42;;;;;;;0.67;0.67;;;;;;;;;;4997492;28;20746;-86
2023/10/29 03:37:09;;;;;;;0.77;0.77;;;;;;;;;;5000001;28;20185;-83
2023/10/29 03:39:35;;;;;;;0.60;0.60;;;;;;;;;;5013869;28;20184;-87
2023/10/29 03:42:02;;;;;;;0.70;0.70;;;;;;;;;;5014251;28;20212;-85
2023/10/29 03:44:28;;;;;;;0.70;0.70;;;;;;;;;;5017467;28;20196;-85
2023/10/29 03:46:54;;;;;;;0.70;0.70;;;;;;;;;;5017471;28;20193;-85
2023/10/29 03:49:20;;;;;;;0.60;0.60;;;;;;;;;;5015950;28;20224;-87
2023/10/29 03:51:47;;;;;;;0.60;0.60;;;;;;;;;;4992951;28;20177;-87
2023/10/29 03:54:14;;;;;;;0.60;0.60;;;;;;;;;;4992504;28;20229;-87
2023/10/29 03:56:40;;;;;;;0.70;0.70;;;;;;;;;;4993338;28;20193;-86
2023/10/29 03:59:06;;;;;;;0.70;0.70;;;;;;;;;;5011780;28;20170;-86
2023/10/29 04:01:32;;;;;;;0.70;0.70;;;;;;;;;;5018043;28;20196;-85
2023/10/29 04:03:58;;;;;;;0.70;0.70;;;;;;;;;;5017545;28;20169;-85
2023/10/29 04:06:24;;;;;;;0.80;0.80;;;;;;;;;;5017291;28;20195;-84
2023/10/29 04:08:50;;;;;;;0.60;0.60;;;;;;;;;;5017740;28;20216;-85
2023/10/29 04:11:16;;;;;;;0.73;0.73;;;;;;;;;;5011906;28;20185;-86
2023/10/29 04:13:42;;;;;;;0.70;0.70;;;;;;;;;;4998034;28;20181;-87
2023/10/29 04:16:09;;;;;;;0.70;0.70;;;;;;;;;;4994732;28;20208;-87
2023/10/29 04:18:35;;;;;;;0.80;0.80;;;;;;;;;;4994841;28;20177;-87
2023/10/29 04:21:03;;;;;;;0.70;0.70;;;;;;;;;;4995081;28;20798;-86
2023/10/29 04:23:28;;;;;;;0.70;0.70;;;;;;;;;;4994488;28;20200;-86
2023/10/29 04:25:54;;;;;;;0.70;0.70;;;;;;;;;;4993714;28;20197;-86
2023/10/29 04:28:20;;;;;;;0.70;0.70;;;;;;;;;;4993608;28;20219;-88
2023/10/29 04:30:48;;;;;;;0.50;0.50;;;;;;;;;;4993694;28;20174;-87
2023/10/29 04:33:14;;;;;;;0.60;0.60;;;;;;;;;;4993643;28;20717;-86
2023/10/29 04:35:40;;;;;;;0.70;0.70;;;;;;;;;;4993243;28;20193;-86
2023/10/29 04:38:06;;;;;;;0.60;0.60;;;;;;;;;;4993583;28;20211;-87
2023/10/29 04:40:32;;;;;;;0.70;0.70;;;;;;;;;;4992233;28;20204;-88
2023/10/29 04:42:57;;;;;;;0.70;0.70;;;;;;;;;;4992993;28;20217;-87
2023/10/29 04:45:23;;;;;;;0.60;0.60;;;;;;;;;;5006560;28;20243;-86
2023/10/29 04:47:49;;;;;;;0.60;0.60;;;;;;;;;;5014290;28;20157;-87
2023/10/29 04:50:15;;;;;;;0.70;0.70;;;;;;;;;;5014768;28;20241;-86
2023/10/29 04:52:41;;;;;;;0.70;0.70;;;;;;;;;;5014015;28;20185;-85
2023/10/29 04:55:08;;;;;;;0.70;0.70;;;;;;;;;;5007585;28;20193;-86
2023/10/29 04:57:35;;;;;;;0.70;0.70;;;;;;;;;;4993169;28;20185;-86
2023/10/29 05:00:01;;;;;;;0.70;0.70;;;;;;;;;;4992257;28;20668;-86
2023/10/29 05:02:27;;;;;;;0.63;0.63;;;;;;;;;;4993088;28;20263;-86
2023/10/29 05:04:53;;;;;;;0.50;0.50;;;;;;;;;;4991598;28;20273;-86
2023/10/29 05:07:19;;;;;;;0.63;0.63;;;;;;;;;;4993015;28;20212;-86
2023/10/29 05:09:46;;;;;;;0.60;0.60;;;;;;;;;;4993556;28;20285;-85
2023/10/29 05:12:12;;;;;;;0.70;0.70;;;;;;;;;;4991985;28;20177;-84
2023/10/29 05:14:38;;;;;;;0.60;0.60;;;;;;;;;;4999087;28;20746;-85
2023/10/29 05:17:04;;;;;;;0.70;0.70;;;;;;;;;;4997610;28;20176;-86
2023/10/29 05:19:30;;;;;;;0.70;0.70;;;;;;;;;;4997555;28;20631;-85
2023/10/29 05:21:56;;;;;;;0.63;0.63;;;;;;;;;;4998668;28;20208;-84
2023/10/29 05:24:22;;;;;;;0.50;0.50;;;;;;;;;;4995963;28;20623;-87
2023/10/29 05:26:48;;;;;;;0.70;0.70;;;;;;;;;;4996096;28;20201;-86
2023/10/29 05:29:14;;;;;;;0.60;0.60;;;;;;;;;;4997719;28;20177;-86
2023/10/29 05:31:40;;;;;;;0.60;0.60;;;;;;;;;;4997868;28;20268;-87
2023/10/29 05:34:07;;;;;;;0.70;0.70;;;;;;;;;;4995647;28;20798;-87
2023/10/29 05:36:33;;;;;;;0.67;0.67;;;;;;;;;;4996757;28;20705;-87
2023/10/29 05:38:59;;;;;;;0.70;0.70;;;;;;;;;;4995725;28;20232;-87
2023/10/29 05:41:26;;;;;;;0.60;0.60;;;;;;;;;;5000602;28;20209;-86
2023/10/29 05:43:52;;;;;;;0.70;0.70;;;;;;;;;;5015197;28;20173;-87
2023/10/29 05:46:22;;;;;;;0.70;0.70;;;;;;;;;;5016190;28;20211;-87
2023/10/29 05:48:48;;;;;;;0.70;0.70;;;;;;;;;;5016811;28;20192;-86
2023/10/29 05:51:17;;;;;;;0.80;0.80;;;;;;;;;;5016859;28;20311;-87
2023/10/29 05:53:44;;;;;;;0.70;0.70;;;;;;;;;;5017016;28;20177;-86
2023/10/29 05:56:10;;;;;;;0.70;0.70;;;;;;;;;;5017120;28;20729;-88
2023/10/29 05:58:36;;;;;;;0.70;0.70;;;;;;;;;;5017949;28;20180;-88
2023/10/29 06:01:02;;;;;;;0.70;0.70;;;;;;;;;;5018293;28;20608;-88
2023/10/29 06:03:28;;;;;;;0.67;0.67;;;;;;;;;;5017745;28;20264;-86
2023/10/29 06:05:55;;;;;;;0.60;0.60;;;;;;;;;;5016053;28;20708;-89
2023/10/29 06:08:21;;;;;;;0.70;0.70;;;;;;;;;;5015490;28;20215;-85
2023/10/29 06:10:48;;;;;;;0.70;0.70;;;;;;;;;;5015273;28;20169;-86
2023/10/29 06:13:14;;;;;;;0.60;0.60;;;;;;;;;;5007701;28;20185;-84
2023/10/29 06:15:40;;;;;;;0.73;0.73;;;;;;;;;;5000020;28;21656;-84
2023/10/29 06:18:06;;;;;;;0.60;0.60;;;;;;;;;;5006764;28;20173;-84
2023/10/29 06:20:32;;;;;;;0.60;0.60;;;;;;;;;;5014317;28;20611;-87
2023/10/29 06:22:59;;;;;;;0.60;0.60;;;;;;;;;;5016332;28;20688;-86
2023/10/29 06:25:26;;;;;;;0.60;0.60;;;;;;;;;;5015911;28;20243;-86
2023/10/29 06:27:52;;;;;;;0.60;0.60;;;;;;;;;;5015915;28;20255;-83
2023/10/29 06:30:18;;;;;;;0.73;0.73;;;;;;;;;;5016529;28;20207;-82
2023/10/29 06:32:45;;;;;;;0.70;0.70;;;;;;;;;;5010697;28;20173;-83
2023/10/29 06:35:12;;;;;;;0.60;0.60;;;;;;;;;;5020167;28;20259;-84
2023/10/29 06:37:38;;;;;;;0.70;0.70;;;;;;;;;;5004421;28;20196;-83
2023/10/29 06:40:04;;;;;;;0.60;0.60;;;;;;;;;;5011204;28;20189;-83
2023/10/29 06:42:30;;;;;;;0.60;0.60;;;;;;;;;;5005910;28;20212;-85
2023/10/29 06:44:56;;;;;;;0.60;0.60;;;;;;;;;;5009721;28;20204;-83
2023/10/29 06:47:22;;;;;;;0.60;0.60;;;;;;;;;;5008794;28;20169;-84
2023/10/29 06:49:50;;;;;;;0.70;0.70;;;;;;;;;;5012314;28;20243;-84
2023/10/29 06:52:16;;;;;;;0.60;0.60;;;;;;;;;;5007316;28;20354;-83
2023/10/29 06:54:42;;;;;;;0.50;0.50;;;;;;;;;;5008726;28;20185;-85
2023/10/29 06:57:08;;;;;;;0.60;0.60;;;;;;;;;;5013402;28;20187;-82
2023/10/29 06:59:34;;;;;;;0.60;0.60;;;;;;;;;;5017107;28;20232;-85
2023/10/29 07:02:00;;;;;;;0.60;0.60;;;;;;;;;;5017937;28;20204;-81
2023/10/29 07:04:26;;;;;;;0.70;0.70;;;;;;;;;;5022096;28;20178;-83
2023/10/29 07:06:53;;;;;;;0.50;0.50;;;;;;;;;;5019183;28;20197;-82
2023/10/29 07:09:19;;;;;;;0.60;0.60;;;;;;;;;;5008941;28;20177;-83
2023/10/29 07:11:45;;;;;;;0.60;0.60;;;;;;;;;;5016288;28;20236;-82
2023/10/29 07:14:12;;;;;;;0.50;0.50;;;;;;;;;;5017249;28;20193;-85
2023/10/29 07:16:43;;;;;;;0.60;0.60;;;;;;;;;;5015423;28;20189;-82
2023/10/29 07:19:10;;;;;;;0.57;0.57;;;;;;;;;;5018834;28;20179;-82
2023/10/29 07:21:36;;;;;;;0.60;0.60;;;;;;;;;;5008505;28;20204;-82
2023/10/29 07:24:04;;;;;;;0.60;0.60;;;;;;;;;;5018235;28;20188;-84
2023/10/29 07:26:30;;;;;;;0.63;0.63;;;;;;;;;;5020818;28;20212;-81
2023/10/29 07:28:56;;;;;;;0.60;0.60;;;;;;;;;;5022682;28;20228;-81
2023/10/29 07:31:22;;;;;;;0.60;0.60;;;;;;;;;;5018851;28;20240;-79
2023/10/29 07:33:48;;;;;;;0.60;0.60;;;;;;;;;;5012668;28;20180;-83
2023/10/29 07:36:14;;;;;;;0.50;0.50;;;;;;;;;;5013818;28;20197;-87
2023/10/29 07:38:40;;;;;;;0.60;0.60;;;;;;;;;;5016412;28;20181;-84
2023/10/29 07:41:06;;;;;;;0.50;0.50;;;;;;;;;;5011542;28;20615;-82
2023/10/29 07:43:32;;;;;;;0.50;0.50;;;;;;;;;;5004503;28;20256;-81
2023/10/29 07:46:01;;;;;;;0.70;0.70;;;;;;;;;;5005179;28;20235;-83
2023/10/29 07:48:27;;;;;;;0.50;0.50;;;;;;;;;;5005129;28;20181;-82
2023/10/29 07:50:53;;;;;;;0.60;0.60;;;;;;;;;;4997476;28;20173;-83
2023/10/29 07:53:19;;;;;;;0.60;0.60;;;;;;;;;;4996226;28;20183;-82
2023/10/29 07:55:46;;;;;;;0.60;0.60;;;;;;;;;;5004582;28;20515;-84
2023/10/29 07:58:12;;;;;;;0.50;0.50;;;;;;;;;;5006785;28;20604;-83
2023/10/29 08:00:46;;;;;;;0.50;0.50;;;;;;;;;;5049344;28;20651;-82
2023/10/29 08:03:12;;;;;;;0.50;0.50;;;;;;;;;;5045959;28;20183;-81
2023/10/29 08:05:38;;;;;;;0.50;0.50;;;;;;;;;;5039260;27;20195;-82
2023/10/29 08:08:05;;;;;;;0.53;0.53;;;;;;;;;;5029967;28;20633;-84
2023/10/29 08:10:31;;;;;;;0.50;0.50;;;;;;;;;;5131151;27;20717;-84
2023/10/29 08:12:57;;;;;;;0.60;0.60;;;;;;;;;;5029752;28;20219;-85
2023/10/29 08:15:23;;;;;;;0.50;0.50;;;;;;;;;;5028371;28;20191;-85
2023/10/29 08:17:49;;;;;;;0.40;0.40;;;;;;;;;;5030008;28;20564;-84
2023/10/29 08:20:16;;;;;;;0.43;0.43;;;;;;;;;;5029942;28;20204;-84
2023/10/29 08:22:42;;;;;;;0.60;0.60;;;;;;;;;;5031716;28;20172;-85
2023/10/29 08:25:08;;;;;;;0.40;0.40;;;;;;;;;;5031615;28;20260;-83
2023/10/29 08:27:34;;;;;;;0.57;0.57;;;;;;;;;;5032685;28;20236;-83
2023/10/29 08:30:00;;;;;;;0.50;0.50;;;;;;;;;;5041709;28;20177;-82
2023/10/29 08:32:27;;;;;;;0.40;0.40;;;;;;;;;;5044206;28;20165;-80
2023/10/29 08:34:53;;;;;;;0.40;0.40;;;;;;;;;;5043499;28;20684;-83
2023/10/29 08:37:20;;;;;;;0.50;0.50;;;;;;;;;;5031590;28;20196;-84
2023/10/29 08:39:46;;;;;;;0.57;0.57;;;;;;;;;;5031167;28;20231;-82
2023/10/29 08:42:12;;;;;;;0.57;0.57;;;;;;;;;;5030921;28;20560;-83
2023/10/29 08:44:38;;;;;;;0.50;0.50;;;;;;;;;;5026733;28;20180;-83
2023/10/29 08:47:04;;;;;;;0.50;0.50;;;;;;;;;;5029274;28;20173;-84
2023/10/29 08:49:30;;;;;;;0.60;0.60;;;;;;;;;;5040115;28;20177;-83
2023/10/29 08:51:56;;;;;;;0.50;0.50;;;;;;;;;;5028649;28;20791;-84
2023/10/29 08:54:23;;;;;;;0.50;0.50;;;;;;;;;;5028740;28;20168;-84
2023/10/29 08:56:49;;;;;;;0.40;0.40;;;;;;;;;;5028447;28;20192;-82
2023/10/29 08:59:15;;;;;;;0.50;0.50;;;;;;;;;;5028798;28;20211;-85
2023/10/29 09:01:41;;;;;;;0.47;0.47;;;;;;;;;;5131680;27;20173;-84
2023/10/29 09:04:08;;;;;;;0.50;0.50;;;;;;;;;;5028656;28;20183;-82
2023/10/29 09:06:35;;;;;;;0.50;0.50;;;;;;;;;;5028678;28;20196;-84
2023/10/29 09:09:02;;;;;;;0.50;0.50;;;;;;;;;;5028705;28;20172;-83
2023/10/29 09:11:27;;;;;;;0.50;0.50;;;;;;;;;;5138775;27;20170;-83
2023/10/29 09:13:57;;;;;;;0.50;0.50;;;;;;;;;;5120661;28;20650;-81
2023/10/29 09:16:23;;;;;;;0.50;0.50;;;;;;;;;;5119741;28;20193;-83
2023/10/29 09:18:49;;;;;;;0.50;0.50;;;;;;;;;;5119898;28;20196;-83
2023/10/29 09:21:15;;;;;;;0.60;0.60;;;;;;;;;;5121297;28;20173;-82
2023/10/29 09:23:41;;;;;;;0.40;0.40;;;;;;;;;;5121706;28;20181;-82
2023/10/29 09:26:07;;;;;;;0.50;0.50;;;;;;;;;;5121804;28;20287;-81
2023/10/29 09:28:33;;;;;;;0.50;0.50;;;;;;;;;;5120440;28;20173;-83
2023/10/29 09:30:59;;;;;;;0.50;0.50;;;;;;;;;;5100308;28;20179;-83
2023/10/29 09:33:25;;;;;;;0.50;0.50;;;;;;;;;;5022163;28;20189;-81
2023/10/29 09:35:52;;;;;;;0.40;0.40;;;;;;;;;;5019184;28;20193;-84
2023/10/29 09:38:20;;;;;;;0.40;0.40;;;;;;;;;;5016941;28;20202;-82
2023/10/29 09:40:46;;;;;;;0.43;0.43;;;;;;;;;;5026389;28;20184;-81
2023/10/29 09:43:14;;;;;;;0.40;0.40;;;;;;;;;;5027872;28;20267;-81
2023/10/29 09:45:45;;;;;;;0.50;0.50;;;;;;;;;;5042724;28;20260;-81
2023/10/29 09:48:13;;;;;;;0.47;0.47;;;;;;;;;;5020311;28;20720;-81
2023/10/29 09:50:39;;;;;;;0.50;0.50;;;;;;;;;;5012814;28;20176;-84
2023/10/29 09:53:05;;;;;;;0.47;0.47;;;;;;;;;;5115380;27;20729;-82
2023/10/29 09:55:32;;;;;;;0.57;0.57;;;;;;;;;;5013354;28;20204;-83
2023/10/29 09:57:59;;;;;;;0.60;0.60;;;;;;;;;;5013581;28;20168;-83
2023/10/29 10:00:26;;;;;;;0.50;0.50;;;;;;;;;;5013623;28;20219;-84
2023/10/29 10:02:56;;;;;;;0.50;0.50;;;;;;;;;;5011370;28;20182;-82
2023/10/29 10:05:22;;;;;;;0.50;0.50;;;;;;;;;;5012867;28;20204;-83
2023/10/29 10:07:49;;;;;;;0.40;0.40;;;;;;;;;;5013508;28;20187;-84
2023/10/29 10:10:15;;;;;;;0.53;0.53;;;;;;;;;;5012074;28;20181;-84
2023/10/29 10:12:48;;;;;;;0.40;0.40;;;;;;;;;;5012800;28;20177;-84
2023/10/29 10:15:14;;;;;;;0.40;0.40;;;;;;;;;;5011943;28;20208;-84
2023/10/29 10:17:45;;;;;;;0.40;0.40;;;;;;;;;;5014566;28;20176;-81
2023/10/29 10:20:11;;;;;;;0.40;0.40;;;;;;;;;;5013088;28;20209;-83
2023/10/29 10:22:37;;;;;;;0.50;0.50;;;;;;;;;;5012557;28;20220;-85
2023/10/29 10:25:04;;;;;;;0.47;0.47;;;;;;;;;;5014071;28;20196;-86
2023/10/29 10:27:30;;;;;;;0.40;0.40;;;;;;;;;;5027030;28;20220;-84
2023/10/29 10:29:56;;;;;;;0.50;0.50;;;;;;;;;;5090011;28;20165;-85
2023/10/29 10:32:25;;;;;;;0.40;0.40;;;;;;;;;;5119050;28;20720;-85
2023/10/29 10:34:52;;;;;;;0.40;0.40;;;;;;;;;;5117381;28;20541;-84
2023/10/29 10:37:19;;;;;;;0.50;0.50;;;;;;;;;;5117029;28;20173;-84
2023/10/29 10:39:45;;;;;;;0.50;0.50;;;;;;;;;;5115115;28;20193;-83
2023/10/29 10:42:11;;;;;;;0.40;0.40;;;;;;;;;;5116920;28;20180;-82
2023/10/29 10:44:41;;;;;;;0.40;0.40;;;;;;;;;;5117152;28;20264;-84
2023/10/29 10:47:09;;;;;;;0.47;0.47;;;;;;;;;;5042737;28;20223;-82
2023/10/29 10:49:36;;;;;;;0.50;0.50;;;;;;;;;;5048525;28;20260;-85
2023/10/29 10:52:02;;;;;;;0.40;0.40;;;;;;;;;;5011958;28;20184;-84
2023/10/29 10:54:30;;;;;;;0.60;0.60;;;;;;;;;;5112478;27;20263;-85
2023/10/29 10:56:56;;;;;;;0.47;0.47;;;;;;;;;;5011897;28;20259;-84
2023/10/29 10:59:23;;;;;;;0.40;0.40;;;;;;;;;;5015322;28;20212;-81
2023/10/29 11:01:49;;;;;;;0.40;0.40;;;;;;;;;;5011560;28;20191;-83
2023/10/29 11:04:15;;;;;;;0.50;0.50;;;;;;;;;;5006111;28;20636;-84
2023/10/29 11:06:42;;;;;;;0.40;0.40;;;;;;;;;;5033358;28;20576;-82
2023/10/29 11:09:17;;;;;;;0.40;0.40;;;;;;;;;;5058442;28;20324;-81
2023/10/29 11:11:45;;;;;;;0.40;0.40;;;;;;;;;;4996085;28;20180;-83
2023/10/29 11:14:12;;;;;;;0.40;0.40;;;;;;;;;;5008964;28;20192;-82
2023/10/29 11:16:57;;;;;;;0.43;0.43;;;;;;;;;;5014551;28;20196;-84
2023/10/29 11:19:47;;;;;;;0.40;0.40;;;;;;;;;;5054718;28;20222;-85
2023/10/29 11:22:29;;;;;;;0.40;0.40;;;;;;;;;;5063902;28;20870;-84
2023/10/29 11:25:14;;;;;;;0.50;0.50;;;;;;;;;;5043775;28;20268;-82
2023/10/29 11:27:49;;;;;;;0.40;0.40;;;;;;;;;;5027520;28;20238;-86
2023/10/29 11:30:16;;;;;;;0.60;0.60;;;;;;;;;;5021449;28;20921;-84
2023/10/29 11:32:43;;;;;;;0.50;0.50;;;;;;;;;;5016637;28;20192;-83
2023/10/29 11:35:15;;;;;;;0.40;0.40;;;;;;;;;;5023008;28;20648;-80
2023/10/29 11:37:42;;;;;;;0.50;0.50;;;;;;;;;;5009356;28;20242;-78
2023/10/29 11:40:32;;;;;;;0.50;0.50;;;;;;;;;;5124940;27;20224;-81
2023/10/29 11:43:15;;;;;;;0.50;0.50;;;;;;;;;;5041841;28;20181;-85
2023/10/29 11:45:41;;;;;;;0.40;0.40;;;;;;;;;;5027488;28;20217;-83
2023/10/29 11:48:14;;;;;;;0.50;0.50;;;;;;;;;;5007114;28;20181;-84
2023/10/29 11:50:42;;;;;;;0.50;0.50;;;;;;;;;;5031844;28;20197;-85
2023/10/29 11:53:21;;;;;;;0.43;0.43;;;;;;;;;;5030723;28;20689;-83
2023/10/29 11:55:48;;;;;;;0.47;0.47;;;;;;;;;;5019586;28;20231;-84
2023/10/29 11:58:13;;;;;;;0.40;0.40;;;;;;;;;;5103342;28;20256;-83
2023/10/29 12:00:40;;;;;;;0.40;0.40;;;;;;;;;;5066772;28;20204;-82
2023/10/29 12:03:08;;;;;;;0.30;0.30;;;;;;;;;;5082321;28;20237;-82
2023/10/29 12:05:36;;;;;;;0.30;0.30;;;;;;;;;;5016006;28;21034;-84
2023/10/29 12:08:02;;;;;;;0.30;0.30;;;;;;;;;;5095731;28;20803;-85
2023/10/29 12:10:28;;;;;;;0.40;0.40;;;;;;;;;;5118458;28;20230;-82
2023/10/29 12:12:54;;;;;;;0.40;0.40;;;;;;;;;;5117181;28;20181;-81
2023/10/29 12:15:20;;;;;;;0.40;0.40;;;;;;;;;;5116866;28;20218;-83
2023/10/29 12:17:47;;;;;;;0.40;0.40;;;;;;;;;;5117477;28;20172;-83
2023/10/29 12:20:28;;;;;;;0.33;0.33;;;;;;;;;;5010501;28;20245;-85
2023/10/29 12:22:58;;;;;;;0.50;0.50;;;;;;;;;;4996108;28;20177;-80
2023/10/29 12:25:26;;;;;;;0.40;0.40;;;;;;;;;;4997082;28;20205;-82
2023/10/29 12:27:53;;;;;;;0.40;0.40;;;;;;;;;;5010458;28;20177;-83
2023/10/29 12:30:35;;;;;;;0.47;0.47;;;;;;;;;;5025303;28;20270;-82
2023/10/29 12:33:20;;;;;;;0.47;0.47;;;;;;;;;;5011451;28;20203;-81
2023/10/29 12:35:50;;;;;;;0.40;0.40;;;;;;;;;;5023175;28;20211;-80
2023/10/29 12:38:16;;;;;;;0.40;0.40;;;;;;;;;;5007389;28;20184;-83
2023/10/29 12:41:04;;;;;;;0.47;0.47;;;;;;;;;;5013974;28;20563;-81
2023/10/29 12:43:37;;;;;;;0.50;0.50;;;;;;;;;;5015005;28;20188;-82
2023/10/29 12:46:13;;;;;;;0.30;0.30;;;;;;;;;;5018078;28;20214;-84
2023/10/29 12:48:59;;;;;;;0.33;0.33;;;;;;;;;;5015461;28;20249;-84
2023/10/29 12:51:26;;;;;;;0.40;0.40;;;;;;;;;;5015307;28;20172;-88
2023/10/29 12:53:53;;;;;;;0.40;0.40;;;;;;;;;;5024679;28;20183;-90
2023/10/29 12:56:19;;;;;;;0.30;0.30;;;;;;;;;;5033334;28;20192;-85
2023/10/29 12:58:45;;;;;;;0.30;0.30;;;;;;;;;;5117332;27;20255;-86
2023/10/29 13:01:12;;;;;;;0.40;0.40;;;;;;;;;;5010132;28;20271;-83
2023/10/29 13:03:38;;;;;;;0.50;0.50;;;;;;;;;;5013003;28;20631;-88
2023/10/29 13:06:04;;;;;;;0.40;0.40;;;;;;;;;;5015467;28;20192;-89
2023/10/29 13:08:30;;;;;;;0.40;0.40;;;;;;;;;;5048782;28;20177;-86
2023/10/29 13:10:57;;;;;;;0.40;0.40;;;;;;;;;;5064153;28;20170;-85
2023/10/29 13:13:23;;;;;;;0.40;0.40;;;;;;;;;;5075148;28;20334;-83
2023/10/29 13:15:49;;;;;;;0.43;0.43;;;;;;;;;;5064271;28;20201;-85
2023/10/29 13:18:15;;;;;;;0.40;0.40;;;;;;;;;;5072402;28;20305;-83
2023/10/29 13:20:41;;;;;;;0.37;0.37;;;;;;;;;;5044829;28;20200;-84
2023/10/29 13:23:07;;;;;;;0.40;0.40;;;;;;;;;;5014590;28;20184;-86
2023/10/29 13:25:33;;;;;;;0.50;0.50;;;;;;;;;;5016069;28;20204;-81
2023/10/29 13:27:59;;;;;;;0.50;0.50;;;;;;;;;;5029788;28;20181;-85
2023/10/29 13:30:27;;;;;;;0.50;0.50;;;;;;;;;;5015572;28;20177;-83
2023/10/29 13:32:53;;;;;;;0.40;0.40;;;;;;;;;;5117712;27;20173;-84
2023/10/29 13:35:19;;;;;;;0.40;0.40;;;;;;;;;;5018693;28;20196;-85
2023/10/29 13:37:47;;;;;;;0.40;0.40;;;;;;;;;;5021781;28;20180;-84
2023/10/29 13:40:15;;;;;;;0.50;0.50;;;;;;;;;;5027793;28;20215;-82
2023/10/29 13:42:41;;;;;;;0.40;0.40;;;;;;;;;;5017541;28;20188;-86
2023/10/29 13:45:07;;;;;;;0.30;0.30;;;;;;;;;;5018560;28;20204;-83
2023/10/29 13:47:33;;;;;;;0.43;0.43;;;;;;;;;;5125202;27;20252;-81
2023/10/29 13:49:59;;;;;;;0.30;0.30;;;;;;;;;;5030606;28;20185;-81
2023/10/29 13:52:25;;;;;;;0.43;0.43;;;;;;;;;;5036066;28;20176;-89
2023/10/29 13:54:51;;;;;;;0.30;0.30;;;;;;;;;;5032315;28;20192;-90
2023/10/29 13:57:17;;;;;;;0.40;0.40;;;;;;;;;;5125730;27;20245;-89
2023/10/29 13:59:43;;;;;;;0.60;0.60;;;;;;;;;;5101577;28;20200;-91
2023/10/29 14:02:10;;;;;;;0.43;0.43;;;;;;;;;;5124189;28;20256;-87
2023/10/29 14:04:36;;;;;;;0.40;0.40;;;;;;;;;;5118261;28;20671;-82
2023/10/29 14:07:02;;;;;;;0.30;0.30;;;;;;;;;;5124844;28;20177;-87
2023/10/29 14:09:28;;;;;;;0.37;0.37;;;;;;;;;;5118488;28;20182;-86
2023/10/29 14:11:54;;;;;;;0.40;0.40;;;;;;;;;;5116332;28;20306;-85
2023/10/29 14:14:23;;;;;;;0.50;0.50;;;;;;;;;;5115833;28;20253;-92
2023/10/29 14:16:51;;;;;;;0.40;0.40;;;;;;;;;;5118416;28;20228;-83
2023/10/29 14:19:18;;;;;;;0.40;0.40;;;;;;;;;;5121980;28;20213;-86
2023/10/29 14:21:48;;;;;;;0.50;0.50;;;;;;;;;;5121324;28;20181;-87
2023/10/29 14:24:14;;;;;;;0.30;0.30;;;;;;;;;;5118713;28;20188;-81
2023/10/29 14:26:40;;;;;;;0.30;0.30;;;;;;;;;;5118499;28;20185;-85
2023/10/29 14:29:06;;;;;;;0.40;0.40;;;;;;;;;;5116776;28;20183;-91
2023/10/29 14:31:33;;;;;;;0.33;0.33;;;;;;;;;;5029733;28;20188;-84
2023/10/29 14:33:59;;;;;;;0.40;0.40;;;;;;;;;;5015222;28;20185;-81
2023/10/29 14:36:25;;;;;;;0.30;0.30;;;;;;;;;;5014852;28;20242;-80
2023/10/29 14:38:51;;;;;;;0.40;0.40;;;;;;;;;;5016148;28;20703;-80
2023/10/29 14:41:18;;;;;;;0.40;0.40;;;;;;;;;;5015369;28;20181;-85
2023/10/29 14:43:44;;;;;;;0.40;0.40;;;;;;;;;;5017916;28;20200;-85